Latest Coastal Weather Observations for St Helens

IDT60701

Issued at 6:32 pm EST Thursday 5 May 2016 (issued every 10 minutes, with the page automatically refreshed every 10 minutes)

About coastal observations | Map of coastal stations | Coastal observations for TAS | Marine services | Other Formats
Station Details ID: 092120 Name: ST HELENS AERODROME Lat: -41.34 Lon: 148.28 Height: 48.0 m
Data from the previous 72 hours. | See also: Recent months at St Helens
Date/Time
EST
Temp

°C
Wind Pressure Rain
since 9am
mm
Weather Cloud Vis
km
Sea
Height
m
Swell
Dir
 
Speed
knots
Gust
knots
hPa Trend Height
m
Period
s
Dir
05/06:30pm 17.2 NNW 12 25 1009.6 - 0.0 - Partly cloudy 10 - - - -
05/06:00pm 16.8 NNW 10 16 1009.5 - 0.0 - Cloudy 10 - - - -
05/05:30pm 16.7 NNW 12 17 1009.5 - 0.0 - Partly cloudy 10 - - - -
05/05:00pm 16.7 NNW 11 18 1009.3 - 0.0 - Cloudy 10 - - - -
05/04:30pm 16.7 NNW 13 21 1009.4 - 0.0 - Partly cloudy 10 - - - -
05/04:00pm 17.0 NW 11 18 1009.5 - 0.0 - Cloudy 10 - - - -
05/03:30pm 16.8 NW 13 19 1009.6 - 0.0 - Cloudy 10 - - - -
05/03:00pm 16.4 NW 11 18 1009.6 - 0.0 - Cloudy 10 - - - -
05/02:30pm 16.5 NW 12 19 1009.7 - 0.0 - Partly cloudy - - - - -
05/02:00pm 16.6 NW 11 18 1009.9 - 0.0 - Cloudy - - - - -
05/01:30pm 16.5 WNW 11 20 1009.9 - 0.0 - Partly cloudy - - - - -
05/01:06pm 16.8 NW 15 27 1010.1 - 0.0 - Partly cloudy - - - - -
05/01:00pm 16.9 NW 16 25 1010.2 - 0.0 - Partly cloudy - - - - -
05/12:37pm 16.5 NW 15 27 1010.5 - 0.0 - Partly cloudy - - - - -
05/12:30pm 16.5 NW 13 20 1010.6 - 0.0 - Partly cloudy - - - - -
05/12:00pm 16.4 NW 16 26 1010.9 - 0.0 - Cloudy - - - - -
05/11:42am 16.6 NW 15 29 1011.1 - 0.0 - Partly cloudy - - - - -
05/11:30am 16.6 NW 15 23 1011.3 - 0.0 - Partly cloudy - - - - -
05/11:00am 17.5 NNW 14 24 1011.8 - 0.0 - Partly cloudy - - - - -
05/10:30am 16.4 NW 15 26 1012.0 - 0.0 - Partly cloudy - - - - -
05/10:00am 15.7 NW 15 27 1012.2 - 0.0 - Partly cloudy - - - - -
05/09:57am 15.5 NW 15 26 1012.1 - 0.0 - Partly cloudy - - - - -
05/09:30am 15.2 NW 15 24 1012.3 - 0.0 - Partly cloudy - - - - -
05/09:00am 15.7 NW 15 25 1012.2 - 0.4 Drizzle Mostly cloudy 10 - - - -
05/08:33am 14.9 NW 15 26 1012.3 - 0.4 - Partly cloudy - - - - -
05/08:30am 14.9 NNW 14 26 1012.2 - 0.4 - Partly cloudy - - - - -
05/08:00am 14.6 NNW 12 21 1012.2 - 0.4 - Partly cloudy - - - - -
05/07:30am 14.4 NW 13 19 1011.9 - 0.4 - Partly cloudy - - - - -
05/07:00am 14.7 NW 11 17 1011.7 - 0.4 - Partly cloudy - - - - -
05/06:30am 14.5 NW 10 15 1011.6 - 0.4 - Partly cloudy - - - - -
05/06:00am 14.8 NNW 9 15 1011.4 - 0.4 - Cloudy - - - - -
05/05:30am 14.7 NNW 11 18 1011.2 - 0.4 - Partly cloudy - - - - -
05/05:00am 14.7 NNW 12 20 1010.8 - 0.4 - Cloudy - - - - -
05/04:30am 14.6 NNW 10 19 1010.7 - 0.4 - Partly cloudy - - - - -
05/04:00am 14.0 NNW 9 13 1010.8 - 0.4 - Partly cloudy - - - - -
05/03:30am 14.1 NNW 11 18 1010.7 - 0.2 - Partly cloudy - - - - -
05/03:00am 14.1 NNW 12 19 1010.6 - 0.2 - Cloudy - - - - -
05/02:30am 13.8 NNW 10 17 1010.8 - 0.2 - Partly cloudy - - - - -
05/02:00am 14.4 NW 15 27 1010.8 - 0.2 - Partly cloudy - - - - -
05/01:57am 14.4 NW 15 27 1010.7 - 0.2 - Partly cloudy - - - - -
05/01:30am 14.7 NW 12 19 1010.6 - 0.2 - Partly cloudy - - - - -
05/01:00am 14.7 NW 14 23 1010.8 - 0.2 - Partly cloudy - - - - -
05/12:30am 14.6 NW 13 19 1010.8 - 0.2 - Partly cloudy 10 - - - -
05/12:00am 14.4 NW 13 19 1010.8 - 0.2 - Cloudy 10 - - - -
 
Date/Time
EST
Temp

°C
Wind Pressure Rain
since 9am
mm
Weather Cloud Vis
km
Sea
Height
m
Swell
Dir
 
Speed
knots
Gust
knots
hPa Trend Height
m
Period
s
Dir
04/11:30pm 14.0 NW 14 22 1010.8 - 0.2 - Partly cloudy 10 - - - -
04/11:00pm 13.5 NW 13 21 1011.0 - 0.2 - Partly cloudy 10 - - - -
04/10:30pm 12.7 NW 12 18 1011.1 - 0.2 - Partly cloudy 10 - - - -
04/10:00pm 12.2 NW 11 17 1011.4 - 0.2 - Partly cloudy 10 - - - -
04/09:30pm 11.9 NW 11 17 1011.5 - 0.0 - Partly cloudy 8 - - - -
04/09:00pm 12.6 NW 13 19 1011.2 - 0.0 - Cloudy 10 - - - -
04/08:30pm 12.3 NW 12 19 1011.2 - 0.0 - Partly cloudy 10 - - - -
04/08:00pm 12.5 NW 13 22 1011.0 - 0.0 - Partly cloudy 10 - - - -
04/07:30pm 12.4 NW 10 16 1010.7 - 0.0 - Partly cloudy 10 - - - -
04/07:00pm 12.5 NNW 8 13 1010.8 - 0.0 - Partly cloudy 10 - - - -
04/06:30pm 12.3 NW 7 14 1010.7 - 0.0 - - 10 - - - -
04/06:00pm 12.3 NNW 9 13 1010.7 - 0.0 - Mostly cloudy 10 - - - -
04/05:30pm 12.4 NNW 10 17 1010.5 - 0.0 - Partly cloudy 10 - - - -
04/05:00pm 12.4 WNW 8 12 1010.3 - 0.0 - Partly cloudy 10 - - - -
04/04:30pm 12.8 W 11 21 1010.2 - 0.0 - Partly cloudy 10 - - - -
04/04:00pm 13.8 WNW 8 13 1009.6 - 0.0 - Partly cloudy 10 - - - -
04/03:30pm 14.1 NW 8 13 1009.2 - 0.0 - Partly cloudy 10 - - - -
04/03:00pm 14.5 WNW 10 21 1009.0 - 0.0 - - 10 - - - -
04/02:30pm 14.7 W 10 21 1009.2 - 0.0 - - 10 - - - -
04/02:00pm 14.2 WNW 10 21 1009.1 - 0.0 - - 10 - - - -
04/01:30pm 14.4 W 6 13 1009.4 - 0.0 - Partly cloudy 10 - - - -
04/01:00pm 14.1 W 9 16 1009.3 - 0.0 - - 10 - - - -
04/12:30pm 14.2 WNW 11 18 1009.4 - 0.0 - - 10 - - - -
04/12:00pm 13.8 WNW 11 20 1009.4 - 0.0 - - 10 - - - -
04/11:30am 13.6 WNW 10 17 1009.5 - 0.0 - - 10 - - - -
04/11:00am 13.9 NW 7 13 1009.5 - 0.0 - - 10 - - - -
04/10:30am 13.0 NW 8 12 1009.2 - 0.0 - - 10 - - - -
04/10:00am 12.9 NNW 7 11 1009.0 - 0.0 - - 10 - - - -
04/09:30am 11.7 NNW 9 12 1008.8 - 0.0 - - 10 - - - -
04/09:00am 11.2 NNW 9 15 1008.4 - 5.8 Fine Mostly clear 25 - - - -
04/08:30am 10.4 NW 10 14 1008.2 - 5.8 - - 10 - - - -
04/08:00am 9.7 NW 5 9 1007.8 - 5.8 - - 10 - - - -
04/07:30am 9.0 NNW 5 7 1007.0 - 5.8 - - 10 - - - -
04/07:00am 8.3 WSW 5 7 1006.2 - 5.8 - - 10 - - - -
04/06:30am 8.8 NW 10 15 1005.4 - 5.8 - - 10 - - - -
04/06:00am 8.3 NW 9 14 1004.8 - 5.8 - - 10 - - - -
04/05:30am 8.4 NW 11 16 1004.1 - 5.8 - - 10 - - - -
04/05:00am 8.3 W 6 13 1003.9 - 5.8 - - 10 - - - -
04/04:30am 8.4 WNW 8 15 1003.4 - 5.8 - - 10 - - - -
04/04:00am 9.0 NW 9 13 1003.0 - 5.8 - - 10 - - - -
04/03:30am 8.9 NW 6 11 1002.7 - 5.8 - - 10 - - - -
04/03:00am 8.5 W 4 8 1002.3 - 5.8 - - 10 - - - -
04/02:30am 8.7 WSW 3 6 1001.6 - 5.8 - - 10 - - - -
04/02:00am 8.7 WSW 5 12 1000.9 - 5.8 - - 10 - - - -
04/01:30am 9.4 W 8 14 1000.5 - 5.8 - - 10 - - - -
04/01:00am 9.3 NW 11 18 1000.4 - 5.8 - - 10 - - - -
04/12:30am 9.2 NW 11 18 1000.2 - 5.8 - - 10 - - - -
04/12:00am 9.4 NW 11 17 999.9 - 5.8 - - 10 - - - -
 
Date/Time
EST
Temp

°C
Wind Pressure Rain
since 9am
mm
Weather Cloud Vis
km
Sea
Height
m
Swell
Dir
 
Speed
knots
Gust
knots
hPa Trend Height
m
Period
s
Dir
03/11:30pm 9.9 WNW 15 25 999.6 - 5.8 - Partly cloudy 10 - - - -
03/11:26pm 9.9 NW 15 25 999.6 - 5.8 - Partly cloudy 10 - - - -
03/11:25pm 10.0 NW 15 23 999.6 - 5.8 - Partly cloudy 10 - - - -
03/11:00pm 9.7 W 6 12 999.7 - 5.8 - - 10 - - - -
03/10:30pm 9.9 W 8 17 999.3 - 5.8 - - 10 - - - -
03/10:00pm 9.6 W 7 11 999.1 - 5.8 - - 10 - - - -
03/09:30pm 9.7 WNW 7 12 998.6 - 5.8 - - 10 - - - -
03/09:00pm 9.5 WNW 4 9 998.4 - 5.8 - - 10 - - - -
03/08:30pm 9.6 W 5 11 997.4 - 5.8 - - - - - - -
03/08:00pm 10.3 WNW 10 15 996.8 - 5.8 - - - - - - -
03/07:30pm 10.9 NW 10 16 996.0 - 5.8 - Partly cloudy - - - - -
03/07:00pm 11.1 WNW 8 15 995.6 - 5.8 - Partly cloudy - - - - -
03/06:30pm 11.6 WNW 12 19 994.3 - 5.8 - Partly cloudy - - - - -
03/06:00pm 11.9 NNW 9 14 993.5 - 5.8 - Cloudy - - - - -
03/05:30pm 11.8 WNW 8 16 993.1 - 5.8 - Cloudy - - - - -
03/05:00pm 11.7 W 8 16 991.9 - 5.8 - Partly cloudy - - - - -
03/04:30pm 11.8 WNW 8 14 991.4 - 5.6 - Cloudy - - - - -
03/04:00pm 12.2 WNW 8 14 990.5 - 5.2 - Partly cloudy - - - - -
03/03:30pm 12.6 WNW 13 22 990.5 - 5.2 - Partly cloudy - - - - -
03/03:00pm 13.5 WNW 13 23 990.5 - 5.0 - Cloudy 10 - - - -
03/02:30pm 13.8 WNW 14 24 990.7 - 5.0 - Partly cloudy 10 - - - -
03/02:00pm 13.7 NW 12 18 990.5 - 5.0 - Partly cloudy 10 - - - -
03/01:30pm 13.9 WNW 11 21 990.9 - 5.0 - Partly cloudy 10 - - - -
03/01:14pm 14.3 W 11 22 990.8 - 4.8 - Partly cloudy 8 - - - -
03/01:05pm 14.4 NW 17 30 990.7 - 4.6 - Partly cloudy 5 - - - -
03/01:04pm 14.4 NW 18 30 990.7 - 4.6 - Partly cloudy 5 - - - -
03/01:00pm 14.6 NW 18 27 990.5 - 4.4 - Partly cloudy 3 - - - -
03/12:55pm 14.6 NW 19 31 990.3 - 4.2 - Partly cloudy 3 - - - -
03/12:49pm 14.8 NW 19 31 990.3 - 3.6 - Partly cloudy 5 - - - -
03/12:47pm 14.8 NW 19 29 990.2 - 3.6 - Partly cloudy 5 - - - -
03/12:30pm 14.6 NW 17 27 990.2 - 3.2 - Partly cloudy 4 - - - -
03/12:00pm 14.9 NW 19 37 990.1 - 2.6 - Cloudy 4 - - - -
03/11:30am 14.7 NNW 18 29 990.4 - 2.4 - Partly cloudy 5 - - - -
03/11:00am 14.4 NW 21 36 991.1 - 2.2 - Partly cloudy - - - - -
03/10:30am 14.6 NW 18 35 991.0 - 1.4 - Partly cloudy 4 - - - -
03/10:00am 14.5 NW 21 34 991.5 - 0.8 - Partly cloudy 3 - - - -
03/09:30am 15.1 NW 23 37 991.5 - 0.2 - Partly cloudy 4 - - - -
03/09:28am 15.2 NW 24 37 991.5 - 0.0 - Partly cloudy 5 - - - -
03/09:00am 15.7 NW 23 40 991.5 - 1.2 Drizzle Partly cloudy 15 - - - -
03/08:47am 15.6 NW 21 34 991.8 - 1.2 - Partly cloudy 10 - - - -
03/08:30am 15.1 NW 24 37 991.9 - 1.0 - Partly cloudy 4 - - - -
03/08:06am 15.2 NW 25 47 992.1 - 0.4 - Partly cloudy 5 - - - -
03/08:00am 15.8 NW 26 43 992.0 - 0.4 - Partly cloudy 7 - - - -
03/07:30am 16.3 NW 27 41 991.8 - 0.4 - Partly cloudy 10 - - - -
03/07:00am 16.4 NW 28 51 991.6 - 0.4 - Partly cloudy 10 - - - -
03/06:30am 16.6 WNW 24 43 991.8 - 0.4 - Cloudy 10 - - - -
03/06:00am 16.3 WNW 24 42 991.8 - 0.4 - Cloudy 10 - - - -
03/05:30am 16.5 NW 30 50 991.8 - 0.4 - Cloudy 10 - - - -
03/05:00am 16.4 NW 27 43 992.4 - 0.4 - Cloudy 10 - - - -
03/04:30am 16.5 NW 28 45 992.6 - 0.4 - Cloudy 10 - - - -
03/04:25am 16.4 NW 30 45 992.7 - 0.4 - Cloudy 10 - - - -
03/04:00am 16.4 NNW 18 36 993.7 - 0.4 - Cloudy 10 - - - -
03/03:30am 16.3 NNW 19 33 994.4 - 0.4 - Cloudy 10 - - - -
03/03:00am 16.1 NW 24 39 994.4 - 0.4 - Mostly cloudy 10 - - - -
03/02:30am 16.1 NW 25 42 994.5 - 0.4 - Cloudy 10 - - - -
03/02:00am 16.1 NW 22 37 995.2 - 0.4 - Partly cloudy 10 - - - -
03/01:30am 16.0 NW 24 42 995.8 - 0.4 - Partly cloudy 10 - - - -
03/01:00am 15.9 NW 19 35 997.0 - 0.4 - Partly cloudy 10 - - - -
03/12:30am 15.7 NW 17 32 997.6 - 0.4 - Partly cloudy 10 - - - -
03/12:00am 15.7 NW 20 37 998.2 - 0.4 - Cloudy 10 - - - -
 
Date/Time
EST
Temp

°C
Wind Pressure Rain
since 9am
mm
Weather Cloud Vis
km
Sea
Height
m
Swell
Dir
 
Speed
knots
Gust
knots
hPa Trend Height
m
Period
s
Dir
02/11:30pm 15.5 NW 21 38 998.5 - 0.4 - Partly cloudy 10 - - - -
02/11:00pm 15.5 NW 20 33 999.0 - 0.4 - Partly cloudy - - - - -
02/10:30pm 15.7 NNW 18 31 999.6 - 0.4 - Partly cloudy - - - - -
02/10:00pm 15.6 NNW 17 31 1000.2 - 0.4 - Partly cloudy - - - - -
02/09:30pm 15.5 NNW 16 29 1000.5 - 0.4 - Partly cloudy - - - - -
02/09:00pm 15.2 NNW 17 30 1000.8 - 0.4 - Cloudy 10 - - - -
02/08:39pm 14.9 NNW 15 28 1000.9 - 0.4 - Partly cloudy 10 - - - -
02/08:30pm 15.0 NNW 13 21 1001.0 - 0.4 - Partly cloudy 10 - - - -
02/08:00pm 14.6 NNW 16 27 1000.8 - 0.2 - Partly cloudy 10 - - - -
02/07:30pm 14.0 NW 17 28 1001.3 - 0.2 - Partly cloudy 10 - - - -
02/07:02pm 14.2 NNW 15 25 1001.5 - 0.2 - Partly cloudy 10 - - - -
02/07:00pm 14.3 NNW 13 25 1001.5 - 0.2 - Partly cloudy 10 - - - -

Other Formats:

Comma delimited format used in spreadsheet applications
http://www.bom.gov.au/fwo/IDT60701/IDT60701.95981.axf

JavaScript Object Notation format (JSON) in row-major order
http://www.bom.gov.au/fwo/IDT60701/IDT60701.95981.json